Strona główna
Zdjęcia satelitarne 15-dni prognozyKlimatMeteorologia morska Cyklony Błyskawica LotniskoFAQ Gazetka O
Pogoda : Europa Afryka Ameryka Północna Ameryka Południowa Azja Australia-Oceania Inny
Języki Kontakt

Albert, Francja

Albert-Picardie

Szerokość geograficzna: 49-58-21N, Długość geograficzna: 002-41-29E, wysokość: 111 m


METAR: LFAQ 311700Z AUTO 13010KT 9999 NSC 16/13 Q1020
TAF: LFAQ 311400Z 3115/3124 16007KT CAVOK

czas: 18:37 (17:37 UTC)

Aktualna obserwacja pogody

Raport powstał 37 minut temu, godzina 17:00 UTC
Wiatr 10 kt od południowy wschód
Temperatura 16°C
Wilgotność 82%
Ciśnienie 1020 hPa
Widzialność 10 km lub więcej

Jednostka miary

Prognoza

Raport powstał 3 godziny i 37 minut temu, godzina 14:00 UTC
Prognoza ważna od 31 godzina 15 UTC do 31 godzina 24 UTC
Wiatr 7 kt od południowo-południowy wschód
Widzialność 10 km lub więcej
Brak chmur poniżej 1500 m i brak chmur cumulonimbus
Informacje na tej stronie internetowej podlegają klauzuli o wyłączeniu odpowiedzialności
Pogoda : Europa Afryka Ameryka Północna Ameryka Południowa Azja Australia-Oceania Inny
Zdjęcia satelitarne 15-dni prognozyKlimatMeteorologia morska Cyklony Błyskawica LotniskoFAQ Języki Kontakt Gazetka O